createdAt,value
2018-01-22T00:00:13.722Z,97372
2018-01-22T00:02:40.507Z,97368
2018-01-22T00:05:07.243Z,97360
2018-01-22T00:07:33.946Z,97362
2018-01-22T00:10:00.658Z,97361
2018-01-22T00:12:27.350Z,97354
2018-01-22T00:14:54.787Z,97359
2018-01-22T00:17:21.457Z,97362
2018-01-22T00:19:48.941Z,97371
2018-01-22T00:22:15.617Z,97376
2018-01-22T00:24:42.345Z,97368
2018-01-22T00:27:10.656Z,97375
2018-01-22T00:29:37.389Z,97382
2018-01-22T00:32:04.042Z,97376
2018-01-22T00:34:30.857Z,97377
2018-01-22T00:36:58.598Z,97384
2018-01-22T00:39:25.294Z,97396
2018-01-22T00:41:52.128Z,97394
2018-01-22T00:44:18.843Z,97390
2018-01-22T00:46:45.530Z,97386
2018-01-22T00:49:13.765Z,97379
2018-01-22T00:51:40.532Z,97383
2018-01-22T00:54:07.194Z,97380
2018-01-22T00:56:33.982Z,97381
2018-01-22T00:59:01.419Z,97388
2018-01-22T01:01:28.085Z,97391
2018-01-22T01:03:55.547Z,97379
2018-01-22T01:06:22.975Z,97377
2018-01-22T01:08:49.661Z,97378
2018-01-22T01:11:16.386Z,97378
2018-01-22T01:13:43.801Z,97375
2018-01-22T01:16:10.502Z,97368
2018-01-22T01:18:37.281Z,97373
2018-01-22T01:21:03.941Z,97367
2018-01-22T01:23:30.647Z,97358
2018-01-22T01:25:57.357Z,97362
2018-01-22T01:28:24.787Z,97373
2018-01-22T01:30:51.478Z,97361
2018-01-22T01:33:18.175Z,97362
2018-01-22T01:35:44.864Z,97363
2018-01-22T01:38:11.531Z,97369
2018-01-22T01:40:38.250Z,97364
2018-01-22T01:43:04.910Z,97366
2018-01-22T01:45:31.616Z,97355
2018-01-22T01:47:58.304Z,97347
2018-01-22T01:50:24.975Z,97350
2018-01-22T01:52:51.650Z,97345
2018-01-22T01:55:20.206Z,97344
2018-01-22T01:57:47.027Z,97337
2018-01-22T02:00:13.752Z,97347
2018-01-22T02:02:40.475Z,97354
2018-01-22T02:05:07.893Z,97361
2018-01-22T02:07:34.562Z,97361
2018-01-22T02:10:01.331Z,97365
2018-01-22T02:12:28.770Z,97357
2018-01-22T02:14:55.461Z,97352
2018-01-22T02:17:22.145Z,97359
2018-01-22T02:19:48.835Z,97374
2018-01-22T02:22:15.595Z,97369
2018-01-22T02:24:42.347Z,97360
2018-01-22T02:27:09.017Z,97351
2018-01-22T02:29:35.698Z,97350
2018-01-22T02:32:02.410Z,97343
2018-01-22T02:34:29.097Z,97353
2018-01-22T02:36:55.774Z,97347
2018-01-22T02:39:22.471Z,97350
2018-01-22T02:41:49.134Z,97350
2018-01-22T02:44:15.810Z,97354
2018-01-22T02:46:42.502Z,97347
2018-01-22T02:49:09.205Z,97346
2018-01-22T02:51:35.876Z,97351
2018-01-22T02:54:03.329Z,97340
2018-01-22T02:56:30.773Z,97331
2018-01-22T02:58:57.449Z,97324
2018-01-22T03:01:24.914Z,97334
2018-01-22T03:03:51.601Z,97327
2018-01-22T03:06:18.294Z,97320
2018-01-22T03:08:45.730Z,97307
2018-01-22T03:11:12.404Z,97305
2018-01-22T03:13:40.211Z,97302
2018-01-22T03:16:07.053Z,97304
2018-01-22T03:18:35.803Z,97295
2018-01-22T03:21:10.276Z,97285
2018-01-22T03:23:37.087Z,97287
2018-01-22T03:26:03.779Z,97293
2018-01-22T03:28:30.699Z,97303
2018-01-22T03:30:57.436Z,97320
2018-01-22T03:33:25.176Z,97327
2018-01-22T03:35:52.659Z,97324
2018-01-22T03:38:19.344Z,97314
2018-01-22T03:40:46.018Z,97314
2018-01-22T03:43:13.474Z,97316
2018-01-22T03:45:40.880Z,97316
2018-01-22T03:48:07.585Z,97316
2018-01-22T03:50:35.094Z,97320
2018-01-22T03:53:01.903Z,97310
2018-01-22T03:55:29.683Z,97306
2018-01-22T03:57:56.396Z,97305
2018-01-22T04:00:23.820Z,97313
2018-01-22T04:02:50.486Z,97317
2018-01-22T04:05:17.211Z,97314
2018-01-22T04:07:43.869Z,97326
2018-01-22T04:10:10.585Z,97330
2018-01-22T04:12:37.306Z,97338
2018-01-22T04:15:03.985Z,97340
2018-01-22T04:17:30.704Z,97342
2018-01-22T04:19:57.395Z,97344
2018-01-22T04:22:24.099Z,97340
2018-01-22T04:24:50.807Z,97343
2018-01-22T04:27:17.533Z,97341
2018-01-22T04:29:44.992Z,97352
2018-01-22T04:32:12.461Z,97356
2018-01-22T04:34:39.915Z,97343
2018-01-22T04:37:07.296Z,97337
2018-01-22T04:39:33.966Z,97331
2018-01-22T04:42:00.646Z,97330
2018-01-22T04:44:27.308Z,97331
2018-01-22T04:46:54.718Z,97328
2018-01-22T04:49:22.325Z,97323
2018-01-22T04:51:49.846Z,97328
2018-01-22T04:54:16.502Z,97322
2018-01-22T04:56:43.195Z,97314
2018-01-22T04:59:09.854Z,97307
2018-01-22T05:01:36.514Z,97315
2018-01-22T05:04:03.267Z,97300
2018-01-22T05:06:29.918Z,97297
2018-01-22T05:08:56.603Z,97301
2018-01-22T05:11:29.225Z,97299
2018-01-22T05:13:55.932Z,97297
2018-01-22T05:16:22.684Z,97296
2018-01-22T05:18:49.462Z,97292
2018-01-22T05:21:16.155Z,97294
2018-01-22T05:23:43.597Z,97296
2018-01-22T05:26:10.403Z,97291
2018-01-22T05:28:37.117Z,97282
2018-01-22T05:31:03.873Z,97289
2018-01-22T05:33:30.661Z,97274
2018-01-22T05:35:57.377Z,97271
2018-01-22T05:38:24.103Z,97271
2018-01-22T05:40:50.900Z,97271
2018-01-22T05:43:17.590Z,97271
2018-01-22T05:45:44.302Z,97273
2018-01-22T05:48:25.673Z,97272
2018-01-22T05:50:52.487Z,97268
2018-01-22T05:53:19.187Z,97272
2018-01-22T05:55:47.833Z,97280
2018-01-22T05:58:14.728Z,97280
2018-01-22T06:00:41.534Z,97282
2018-01-22T06:03:08.382Z,97283
2018-01-22T06:05:36.120Z,97284
2018-01-22T06:08:03.890Z,97289
2018-01-22T06:10:30.657Z,97283
2018-01-22T06:12:58.406Z,97291
2018-01-22T06:15:31.110Z,97298
2018-01-22T06:17:57.836Z,97297
2018-01-22T06:20:24.560Z,97291
2018-01-22T06:22:51.263Z,97285
2018-01-22T06:25:17.945Z,97287
2018-01-22T06:27:44.641Z,97300
2018-01-22T06:30:18.329Z,97305
2018-01-22T06:32:53.787Z,97298
2018-01-22T06:35:20.515Z,97316
2018-01-22T06:37:47.227Z,97314
2018-01-22T06:40:13.909Z,97302
2018-01-22T06:42:40.604Z,97301
2018-01-22T06:45:08.039Z,97299
2018-01-22T06:47:34.714Z,97299
2018-01-22T06:50:01.366Z,97289
2018-01-22T06:52:28.017Z,97285
2018-01-22T06:54:54.735Z,97285
2018-01-22T06:57:22.147Z,97297
2018-01-22T06:59:48.816Z,97301
2018-01-22T07:02:15.538Z,97303
2018-01-22T07:04:42.262Z,97295
2018-01-22T07:07:08.910Z,97296
2018-01-22T07:09:35.562Z,97296
2018-01-22T07:12:02.229Z,97300
2018-01-22T07:14:28.896Z,97308
2018-01-22T07:16:57.255Z,97303
2018-01-22T07:19:24.274Z,97299
2018-01-22T07:21:56.646Z,97290
2018-01-22T07:24:23.379Z,97296
2018-01-22T07:26:50.143Z,97289
2018-01-22T07:29:16.798Z,97290
2018-01-22T07:31:43.488Z,97290
2018-01-22T07:34:10.224Z,97294
2018-01-22T07:36:37.656Z,97293
2018-01-22T07:39:04.419Z,97285
2018-01-22T07:41:31.925Z,97286
2018-01-22T07:43:58.594Z,97282
2018-01-22T07:46:25.251Z,97282
2018-01-22T07:48:51.993Z,97287
2018-01-22T07:51:18.678Z,97293
2018-01-22T07:53:45.363Z,97285
2018-01-22T07:56:12.081Z,97287
2018-01-22T07:58:38.759Z,97277
2018-01-22T08:01:05.442Z,97276
2018-01-22T08:03:32.191Z,97269
2018-01-22T08:05:59.598Z,97272
2018-01-22T08:08:26.307Z,97273
2018-01-22T08:10:53.015Z,97271
2018-01-22T08:13:20.401Z,97270
2018-01-22T08:15:47.122Z,97273
2018-01-22T08:18:14.654Z,97270
2018-01-22T08:20:41.345Z,97257
2018-01-22T08:23:08.046Z,97262
2018-01-22T08:25:34.805Z,97269
2018-01-22T08:28:02.264Z,97261
2018-01-22T08:30:30.037Z,97257
2018-01-22T08:32:58.363Z,97251
2018-01-22T08:35:25.090Z,97244
2018-01-22T08:37:51.777Z,97240
2018-01-22T08:40:18.472Z,97226
2018-01-22T08:42:45.178Z,97220
2018-01-22T08:45:11.849Z,97214
2018-01-22T08:47:38.557Z,97207
2018-01-22T08:50:05.226Z,97205
2018-01-22T08:52:32.687Z,97209
2018-01-22T08:55:00.171Z,97208
2018-01-22T08:57:26.912Z,97207
2018-01-22T08:59:53.638Z,97214
2018-01-22T09:02:21.092Z,97212
2018-01-22T09:04:48.529Z,97210
2018-01-22T09:07:15.207Z,97215
2018-01-22T09:09:41.995Z,97220
2018-01-22T09:12:09.709Z,97215
2018-01-22T09:14:37.148Z,97222
2018-01-22T09:17:03.978Z,97217
2018-01-22T09:19:30.699Z,97223
2018-01-22T09:21:57.388Z,97223
2018-01-22T09:24:24.122Z,97224
2018-01-22T09:26:50.986Z,97225
2018-01-22T09:29:17.723Z,97226
2018-01-22T09:31:44.442Z,97239
2018-01-22T09:34:11.119Z,97236
2018-01-22T09:36:38.587Z,97237
2018-01-22T09:39:06.070Z,97238
2018-01-22T09:41:32.775Z,97232
2018-01-22T09:43:59.436Z,97218
2018-01-22T09:46:26.915Z,97211
2018-01-22T09:48:53.684Z,97209
2018-01-22T09:51:20.356Z,97211
2018-01-22T09:53:47.063Z,97212
2018-01-22T09:56:13.718Z,97202
2018-01-22T09:58:40.422Z,97195
2018-01-22T10:01:07.864Z,97191
2018-01-22T10:03:34.568Z,97184
2018-01-22T10:06:02.030Z,97184
2018-01-22T10:08:28.758Z,97187
2018-01-22T10:10:55.457Z,97184
2018-01-22T10:13:23.862Z,97186
2018-01-22T10:15:53.364Z,97185
2018-01-22T10:18:21.663Z,97178
2018-01-22T10:20:49.985Z,97183
2018-01-22T10:23:16.722Z,97176
2018-01-22T10:25:43.389Z,97171
2018-01-22T10:28:10.804Z,97162
2018-01-22T10:30:37.520Z,97151
2018-01-22T10:33:11.862Z,97154
2018-01-22T10:35:38.578Z,97140
2018-01-22T10:38:06.016Z,97142
2018-01-22T10:40:32.725Z,97143
2018-01-22T10:42:59.455Z,97143
2018-01-22T10:45:27.789Z,97137
2018-01-22T10:47:54.464Z,97124
2018-01-22T10:50:21.984Z,97121
2018-01-22T10:52:50.293Z,97109
2018-01-22T10:55:18.662Z,97107
2018-01-22T10:57:47.007Z,97101
2018-01-22T11:00:13.716Z,97103
2018-01-22T11:02:40.456Z,97107
2018-01-22T11:05:08.874Z,97102
2018-01-22T11:07:37.173Z,97098
2018-01-22T11:10:05.468Z,97094
2018-01-22T11:12:32.148Z,97083
2018-01-22T11:14:59.595Z,97086
2018-01-22T11:17:27.022Z,97073
2018-01-22T11:19:53.756Z,97062
2018-01-22T11:22:20.438Z,97063
2018-01-22T11:24:47.938Z,97059
2018-01-22T11:27:14.629Z,97062
2018-01-22T11:29:41.400Z,97066
2018-01-22T11:32:08.836Z,97065
2018-01-22T11:34:35.553Z,97058
2018-01-22T11:37:02.238Z,97052
2018-01-22T11:39:29.662Z,97061
2018-01-22T11:41:56.354Z,97049
2018-01-22T11:44:23.767Z,97041
2018-01-22T11:46:50.495Z,97036
2018-01-22T11:49:17.259Z,97038
2018-01-22T11:51:43.903Z,97026
2018-01-22T11:54:10.573Z,97025
2018-01-22T11:56:38.059Z,97017
2018-01-22T11:59:06.378Z,97006
2018-01-22T12:01:33.855Z,97004
2018-01-22T12:04:00.530Z,97008
2018-01-22T12:06:28.046Z,97003
2018-01-22T12:08:54.772Z,97003
2018-01-22T12:11:21.516Z,96990
2018-01-22T12:13:49.147Z,96980
2018-01-22T12:16:16.584Z,96980
2018-01-22T12:18:43.401Z,96979
2018-01-22T12:21:11.734Z,96973
2018-01-22T12:23:39.147Z,96974
2018-01-22T12:26:05.853Z,96975
2018-01-22T12:28:34.187Z,96969
2018-01-22T12:31:02.636Z,96968
2018-01-22T12:33:29.815Z,96949
2018-01-22T12:35:56.517Z,96941
2018-01-22T12:38:23.214Z,96936
2018-01-22T12:40:49.936Z,96935
2018-01-22T12:43:16.641Z,96936
2018-01-22T12:45:43.349Z,96927
2018-01-22T12:48:10.129Z,96934
2018-01-22T12:50:37.894Z,96925
2018-01-22T12:53:04.640Z,96919
2018-01-22T12:55:31.366Z,96910
2018-01-22T12:57:58.838Z,96913
2018-01-22T13:00:25.535Z,96923
2018-01-22T13:02:52.283Z,96933
2018-01-22T13:05:18.942Z,96925
2018-01-22T13:07:46.790Z,96925
2018-01-22T13:10:13.543Z,96917
2018-01-22T13:12:43.601Z,96914
2018-01-22T13:15:11.046Z,96913
2018-01-22T13:17:38.515Z,96912
2018-01-22T13:20:05.972Z,96913
2018-01-22T13:22:33.469Z,96905
2018-01-22T13:25:00.277Z,96911
2018-01-22T13:27:27.725Z,96912
2018-01-22T13:29:55.223Z,96906
2018-01-22T13:32:21.993Z,96883
2018-01-22T13:34:48.759Z,96897
2018-01-22T13:37:15.452Z,96908
2018-01-22T13:39:42.165Z,96898
2018-01-22T13:42:08.912Z,96898
2018-01-22T13:44:35.654Z,96902
2018-01-22T13:47:02.393Z,96906
2018-01-22T13:49:29.086Z,96903
2018-01-22T13:51:59.877Z,96906
2018-01-22T13:54:26.712Z,96911
2018-01-22T13:56:53.402Z,96908
2018-01-22T13:59:20.084Z,96906
2018-01-22T14:01:46.800Z,96904
2018-01-22T14:04:13.530Z,96899
2018-01-22T14:06:40.205Z,96892
2018-01-22T14:09:06.893Z,96884
2018-01-22T14:11:33.574Z,96884
2018-01-22T14:14:01.191Z,96878
2018-01-22T14:16:27.905Z,96887
2018-01-22T14:18:54.587Z,96890
2018-01-22T14:21:21.304Z,96893
2018-01-22T14:23:47.993Z,96885
2018-01-22T14:26:17.534Z,96875
2018-01-22T14:28:44.217Z,96884
2018-01-22T14:31:12.054Z,96881
2018-01-22T14:33:38.722Z,96866
2018-01-22T14:36:05.445Z,96872
2018-01-22T14:38:32.204Z,96868
2018-01-22T14:40:58.998Z,96867
2018-01-22T14:43:25.708Z,96874
2018-01-22T14:45:52.437Z,96871
2018-01-22T14:48:19.150Z,96873
2018-01-22T14:50:45.888Z,96872
2018-01-22T14:53:12.602Z,96886
2018-01-22T14:55:40.003Z,96884
2018-01-22T14:58:06.677Z,96877
2018-01-22T15:00:33.395Z,96869
2018-01-22T15:03:00.118Z,96885
2018-01-22T15:05:26.878Z,96892
2018-01-22T15:07:53.616Z,96884
2018-01-22T15:10:20.329Z,96889
2018-01-22T15:12:47.749Z,96896
2018-01-22T15:15:14.489Z,96892
2018-01-22T15:17:41.163Z,96885
2018-01-22T15:20:08.748Z,96879
2018-01-22T15:22:35.501Z,96887
2018-01-22T15:25:02.285Z,96886
2018-01-22T15:27:29.010Z,96887
2018-01-22T15:29:55.801Z,96887
2018-01-22T15:32:23.300Z,96892
2018-01-22T15:34:51.098Z,96886
2018-01-22T15:37:17.818Z,96893
2018-01-22T15:39:44.498Z,96890
2018-01-22T15:42:11.173Z,96894
2018-01-22T15:44:38.628Z,96895
2018-01-22T15:47:06.057Z,96894
2018-01-22T15:49:32.739Z,96891
2018-01-22T15:52:00.197Z,96893
2018-01-22T15:54:27.595Z,96902
2018-01-22T15:56:54.283Z,96907
2018-01-22T15:59:21.023Z,96905
2018-01-22T16:01:47.817Z,96910
2018-01-22T16:04:14.521Z,96902
2018-01-22T16:06:41.291Z,96907
2018-01-22T16:09:08.784Z,96909
2018-01-22T16:11:35.473Z,96901
2018-01-22T16:14:02.205Z,96902
2018-01-22T16:16:28.894Z,96903
2018-01-22T16:18:55.634Z,96905
2018-01-22T16:21:23.095Z,96906
2018-01-22T16:23:49.810Z,96910
2018-01-22T16:26:16.521Z,96916
2018-01-22T16:28:43.254Z,96914
2018-01-22T16:31:10.002Z,96914
2018-01-22T16:33:36.745Z,96907
2018-01-22T16:36:05.112Z,96914
2018-01-22T16:38:33.496Z,96917
2018-01-22T16:41:02.960Z,96912
2018-01-22T16:43:31.317Z,96916
2018-01-22T16:45:59.653Z,96916
2018-01-22T16:48:27.981Z,96927
2018-01-22T16:50:56.471Z,96926
2018-01-22T16:53:24.927Z,96929
2018-01-22T16:55:53.322Z,96927
2018-01-22T16:58:21.709Z,96928
2018-01-22T17:00:50.164Z,96925
2018-01-22T17:03:30.797Z,96923
2018-01-22T17:06:01.699Z,96936
2018-01-22T17:08:28.419Z,96935
2018-01-22T17:10:55.195Z,96936
2018-01-22T17:13:27.167Z,96942
2018-01-22T17:15:55.790Z,96942
2018-01-22T17:18:23.292Z,96951
2018-01-22T17:20:50.103Z,96959
2018-01-22T17:23:17.696Z,96954
2018-01-22T17:25:44.378Z,96960
2018-01-22T17:28:11.108Z,96967
2018-01-22T17:30:38.952Z,96957
2018-01-22T17:33:05.757Z,96957
2018-01-22T17:35:32.448Z,96974
2018-01-22T17:37:59.197Z,96984
2018-01-22T17:40:26.049Z,96975
2018-01-22T17:42:55.050Z,96969
2018-01-22T17:45:23.886Z,96970
2018-01-22T17:47:50.617Z,96980
2018-01-22T17:50:17.325Z,96979
2018-01-22T17:52:44.034Z,96978
2018-01-22T17:55:11.485Z,96977
2018-01-22T17:57:40.020Z,96969
2018-01-22T18:00:06.782Z,96966
2018-01-22T18:02:34.525Z,96976
2018-01-22T18:05:01.208Z,96980
2018-01-22T18:07:27.916Z,96973
2018-01-22T18:09:54.615Z,96962
2018-01-22T18:12:23.195Z,96975
2018-01-22T18:14:49.923Z,96967
2018-01-22T18:17:16.816Z,96971
2018-01-22T18:19:44.195Z,96970
2018-01-22T18:22:12.003Z,96966
2018-01-22T18:24:39.872Z,96977
2018-01-22T18:27:07.432Z,96983
2018-01-22T18:29:47.750Z,96965
2018-01-22T18:32:14.486Z,96976
2018-01-22T18:34:41.204Z,96978
2018-01-22T18:37:08.655Z,96969
2018-01-22T18:39:38.672Z,96972
2018-01-22T18:42:05.458Z,96968
2018-01-22T18:44:32.197Z,96978
2018-01-22T18:46:58.956Z,96981
2018-01-22T18:49:25.647Z,96991
2018-01-22T18:51:52.366Z,97001
2018-01-22T18:54:22.930Z,96999
2018-01-22T18:56:49.693Z,96997
2018-01-22T18:59:17.138Z,96983
2018-01-22T19:01:43.829Z,96976
2018-01-22T19:04:10.585Z,96978
2018-01-22T19:06:37.400Z,96984
2018-01-22T19:09:11.365Z,96973
2018-01-22T19:11:38.275Z,96968
2018-01-22T19:14:05.137Z,96964
2018-01-22T19:16:32.872Z,96960
2018-01-22T19:19:04.502Z,96963
2018-01-22T19:21:31.286Z,96974
2018-01-22T19:24:00.138Z,96977
2018-01-22T19:26:26.879Z,96995
2018-01-22T19:28:54.112Z,96990
2018-01-22T19:31:20.860Z,96995
2018-01-22T19:33:47.571Z,97001
2018-01-22T19:36:14.269Z,96992
2018-01-22T19:38:41.058Z,96991
2018-01-22T19:41:08.022Z,96998
2018-01-22T19:43:35.291Z,97006
2018-01-22T19:46:02.196Z,97006
2018-01-22T19:48:29.690Z,97013
2018-01-22T19:50:56.418Z,97003
2018-01-22T19:53:23.305Z,96999
2018-01-22T19:55:50.028Z,96995
2018-01-22T19:58:16.798Z,96997
2018-01-22T20:00:43.800Z,96992
2018-01-22T20:03:11.192Z,96990
2018-01-22T20:05:37.968Z,96995
2018-01-22T20:08:04.818Z,96990
2018-01-22T20:10:31.523Z,96996
2018-01-22T20:12:58.268Z,96997
2018-01-22T20:15:24.955Z,96996
2018-01-22T20:17:52.691Z,96999
2018-01-22T20:20:19.364Z,96997
2018-01-22T20:22:46.092Z,97008
2018-01-22T20:25:13.038Z,97007
2018-01-22T20:27:39.787Z,96996
2018-01-22T20:30:06.604Z,97002
2018-01-22T20:32:33.320Z,97011
2018-01-22T20:35:00.050Z,97019
2018-01-22T20:37:27.537Z,97023
2018-01-22T20:39:54.295Z,97024
2018-01-22T20:42:21.042Z,97027
2018-01-22T20:44:47.766Z,97017
2018-01-22T20:47:14.547Z,97024
2018-01-22T20:49:41.510Z,97028
2018-01-22T20:52:08.277Z,97029
2018-01-22T20:54:35.713Z,97023
2018-01-22T20:57:06.103Z,97016
2018-01-22T20:59:32.905Z,97018
2018-01-22T21:02:00.451Z,97026
2018-01-22T21:04:27.188Z,97018
2018-01-22T21:06:53.919Z,97019
2018-01-22T21:09:20.619Z,97023
2018-01-22T21:11:51.471Z,97025
2018-01-22T21:14:28.814Z,97028
2018-01-22T21:16:55.674Z,97032
2018-01-22T21:19:22.384Z,97025
2018-01-22T21:21:49.087Z,97024
2018-01-22T21:24:16.529Z,97026
2018-01-22T21:26:43.230Z,97024
2018-01-22T21:29:09.990Z,97031
2018-01-22T21:31:36.717Z,97032
2018-01-22T21:34:03.545Z,97042
2018-01-22T21:36:43.251Z,97039
2018-01-22T21:39:15.225Z,97037
2018-01-22T21:41:43.994Z,97045
2018-01-22T21:44:10.809Z,97050
2018-01-22T21:46:37.530Z,97052
2018-01-22T21:49:04.247Z,97044
2018-01-22T21:51:41.434Z,97051
2018-01-22T21:54:15.121Z,97061
2018-01-22T21:56:45.890Z,97065
2018-01-22T21:59:13.378Z,97065
2018-01-22T22:01:40.210Z,97066
2018-01-22T22:04:07.638Z,97074
2018-01-22T22:06:43.209Z,97062
2018-01-22T22:09:10.654Z,97057
2018-01-22T22:11:43.854Z,97059
2018-01-22T22:14:12.404Z,97072
2018-01-22T22:16:40.708Z,97072
2018-01-22T22:19:07.524Z,97080
2018-01-22T22:21:34.224Z,97075
2018-01-22T22:24:01.714Z,97077
2018-01-22T22:26:28.462Z,97080
2018-01-22T22:29:05.658Z,97078
2018-01-22T22:31:32.368Z,97076
2018-01-22T22:34:03.802Z,97065
2018-01-22T22:36:37.989Z,97061
2018-01-22T22:39:15.598Z,97039
2018-01-22T22:41:42.342Z,97062
2018-01-22T22:44:09.048Z,97073
2018-01-22T22:46:35.767Z,97079
2018-01-22T22:49:05.406Z,97088
2018-01-22T22:51:39.534Z,97082
2018-01-22T22:54:06.242Z,97081
2018-01-22T22:56:33.659Z,97082
2018-01-22T22:59:00.369Z,97086
2018-01-22T23:01:27.153Z,97095
2018-01-22T23:03:53.881Z,97100
2018-01-22T23:06:20.579Z,97090
2018-01-22T23:08:54.663Z,97093
2018-01-22T23:11:22.122Z,97079
2018-01-22T23:13:48.785Z,97079
2018-01-22T23:16:15.513Z,97081
2018-01-22T23:18:42.197Z,97087
2018-01-22T23:21:33.573Z,97098
2018-01-22T23:24:00.299Z,97103
2018-01-22T23:26:29.114Z,97085
2018-01-22T23:29:03.932Z,97096
2018-01-22T23:31:30.659Z,97096
2018-01-22T23:33:57.338Z,97102
2018-01-22T23:36:24.175Z,97110
2018-01-22T23:38:50.846Z,97116
2018-01-22T23:41:17.558Z,97119
2018-01-22T23:43:44.265Z,97117
2018-01-22T23:46:10.928Z,97107
2018-01-22T23:48:37.600Z,97106
2018-01-22T23:51:04.350Z,97110
2018-01-22T23:53:31.035Z,97126
2018-01-22T23:55:57.725Z,97123
2018-01-22T23:58:24.426Z,97126
